Time;durP1;ratioP1;P1;durP2;ratioP2;P2;SDS_P1;SDS_P2;PMS_P1;PMS_P2;Temp;Humidity;BMP_temperature;BMP_pressure;BME280_temperature;BME280_humidity;BME280_pressure;Samples;Min_cycle;Max_cycle;Signal;HPM_P1;HPM_P2
2022/10/13 00:01:57;;;;;;;38.77;25.67;;;13.10;1.00;;;;;;5051845;28;20352;-66
2022/10/13 00:04:23;;;;;;;30.33;21.97;;;13.10;1.00;;;;;;5052650;28;20252;-65
2022/10/13 00:06:48;;;;;;;32.50;22.07;;;13.10;1.00;;;;;;5052612;28;20178;-65
2022/10/13 00:09:14;;;;;;;38.60;22.40;;;13.00;1.00;;;;;;5052713;28;20313;-65
2022/10/13 00:11:39;;;;;;;45.37;22.00;;;13.00;1.00;;;;;;5051794;28;20209;-66
2022/10/13 00:14:05;;;;;;;35.67;21.40;;;13.00;1.00;;;;;;5052757;28;20190;-66
2022/10/13 00:16:31;;;;;;;31.03;21.07;;;13.00;1.00;;;;;;5051729;28;20244;-66
2022/10/13 00:18:57;;;;;;;32.47;23.13;;;13.00;1.00;;;;;;5052523;28;20217;-66
2022/10/13 00:21:25;;;;;;;30.67;21.63;;;13.00;1.00;;;;;;5051335;28;20436;-65
2022/10/13 00:23:52;;;;;;;38.23;21.33;;;13.00;1.00;;;;;;5052237;28;20201;-65
2022/10/13 00:26:20;;;;;;;41.20;20.70;;;13.00;1.00;;;;;;5052607;28;20440;-66
2022/10/13 00:28:45;;;;;;;36.30;20.87;;;13.00;1.00;;;;;;5052017;28;20509;-65
2022/10/13 00:31:18;;;;;;;34.70;19.67;;;13.00;1.00;;;;;;5050857;28;20504;-65
2022/10/13 00:33:44;;;;;;;33.97;19.73;;;12.90;1.00;;;;;;5051822;28;20195;-65
2022/10/13 00:36:10;;;;;;;25.37;19.30;;;12.90;1.00;;;;;;5051834;28;20465;-66
2022/10/13 00:38:36;;;;;;;28.30;18.60;;;12.90;1.00;;;;;;5051828;28;20361;-66
2022/10/13 00:41:01;;;;;;;25.00;18.43;;;12.80;1.00;;;;;;5051096;28;20171;-66
2022/10/13 00:43:53;;;;;;;26.60;18.80;;;12.90;1.00;;;;;;5051428;28;20225;-65
2022/10/13 00:46:21;;;;;;;27.73;17.27;;;12.90;1.00;;;;;;5051501;28;20624;-65
2022/10/13 00:48:49;;;;;;;20.77;16.70;;;12.80;1.00;;;;;;5051762;28;20408;-66
2022/10/13 00:51:18;;;;;;;23.77;17.93;;;12.80;1.00;;;;;;5050751;28;20460;-65
2022/10/13 00:53:45;;;;;;;20.50;16.93;;;12.80;1.00;;;;;;5051455;28;20529;-65
2022/10/13 00:56:13;;;;;;;23.47;17.50;;;12.80;1.00;;;;;;5051677;28;20462;-65
2022/10/13 00:58:40;;;;;;;25.00;17.27;;;12.80;1.00;;;;;;5051588;28;20453;-66
2022/10/13 01:01:06;;;;;;;20.73;16.13;;;12.80;1.00;;;;;;5045565;28;20807;-65
2022/10/13 01:03:32;;;;;;;26.77;17.90;;;12.80;1.00;;;;;;5030982;28;20446;-65
2022/10/13 01:06:01;;;;;;;28.80;16.70;;;12.80;1.00;;;;;;5031719;28;20430;-66
2022/10/13 01:08:30;;;;;;;22.57;17.60;;;12.80;1.00;;;;;;5031643;28;20419;-66
2022/10/13 01:11:08;;;;;;;20.53;15.27;;;12.80;1.00;;;;;;5030684;28;20418;-66
2022/10/13 01:13:40;;;;;;;22.00;17.17;;;12.80;1.00;;;;;;5031070;28;20468;-65
2022/10/13 01:16:55;;;;;;;23.93;16.90;;;12.80;1.00;;;;;;5030741;28;20502;-66
2022/10/13 01:19:44;;;;;;;22.70;15.00;;;12.70;1.00;;;;;;4950419;29;20465;-66
2022/10/13 01:22:39;;;;;;;20.60;16.77;;;12.70;1.00;;;;;;4949963;29;20422;-65
2022/10/13 01:25:26;;;;;;;22.50;16.80;;;12.60;1.00;;;;;;5001541;28;20493;-66
2022/10/13 01:28:03;;;;;;;23.83;15.87;;;12.60;1.00;;;;;;5031115;28;20471;-66
2022/10/13 01:30:35;;;;;;;21.67;17.47;;;12.60;1.00;;;;;;5029631;28;20417;-65
2022/10/13 01:33:19;;;;;;;24.63;17.47;;;12.70;1.00;;;;;;5030994;28;20529;-65
2022/10/13 01:35:58;;;;;;;24.67;17.73;;;12.70;1.00;;;;;;5030532;28;20413;-65
2022/10/13 01:38:56;;;;;;;26.73;16.97;;;12.80;1.00;;;;;;5031143;28;20539;-66
2022/10/13 01:41:34;;;;;;;57.43;22.30;;;12.70;1.00;;;;;;4985674;28;20414;-66
2022/10/13 01:44:05;;;;;;;20.90;16.80;;;12.70;1.00;;;;;;5030493;28;20873;-66
2022/10/13 01:46:36;;;;;;;38.03;19.13;;;12.60;1.00;;;;;;5030146;28;20417;-65
2022/10/13 01:49:07;;;;;;;38.13;18.97;;;12.60;1.00;;;;;;5030420;28;21166;-65
2022/10/13 01:51:34;;;;;;;23.90;17.43;;;12.60;1.00;;;;;;5029774;28;20443;-65
2022/10/13 01:54:00;;;;;;;26.50;18.23;;;12.60;1.00;;;;;;5030559;28;20484;-66
2022/10/13 01:56:25;;;;;;;21.53;16.80;;;12.40;1.00;;;;;;5030353;28;20888;-65
2022/10/13 01:58:53;;;;;;;20.67;16.97;;;12.40;1.00;;;;;;5030401;28;20265;-66
2022/10/13 02:01:46;;;;;;;29.47;17.97;;;12.40;1.00;;;;;;5029188;28;20183;-65
2022/10/13 02:04:33;;;;;;;29.53;18.80;;;12.60;1.00;;;;;;5030427;28;20843;-65
2022/10/13 02:07:13;;;;;;;22.00;16.60;;;12.60;1.00;;;;;;5030353;28;20506;-66
2022/10/13 02:10:07;;;;;;;24.10;16.70;;;12.40;1.00;;;;;;5030157;28;20413;-65
2022/10/13 02:12:46;;;;;;;24.53;17.80;;;12.40;1.00;;;;;;5029500;28;20417;-65
2022/10/13 02:15:18;;;;;;;18.47;16.10;;;12.30;1.00;;;;;;5029220;28;20986;-65
2022/10/13 02:17:44;;;;;;;23.30;17.77;;;12.40;1.00;;;;;;5030170;28;20454;-65
2022/10/13 02:20:10;;;;;;;24.23;17.87;;;12.50;1.00;;;;;;5030006;28;20436;-65
2022/10/13 02:22:47;;;;;;;20.67;16.90;;;12.40;1.00;;;;;;5029325;28;20551;-66
2022/10/13 02:25:13;;;;;;;21.30;15.73;;;12.40;1.00;;;;;;5030088;28;20402;-66
2022/10/13 02:27:39;;;;;;;29.63;18.50;;;12.30;1.00;;;;;;5030406;28;20447;-65
2022/10/13 02:30:05;;;;;;;27.67;16.80;;;12.40;1.00;;;;;;5029634;28;20163;-65
2022/10/13 02:32:31;;;;;;;26.83;16.93;;;12.50;1.00;;;;;;5030057;28;20807;-65
2022/10/13 02:34:57;;;;;;;19.87;15.53;;;12.20;1.00;;;;;;5030438;28;20411;-65
2022/10/13 02:37:24;;;;;;;34.43;18.17;;;12.20;1.00;;;;;;5032389;28;20678;-64
2022/10/13 02:39:50;;;;;;;19.73;15.50;;;12.30;1.00;;;;;;5041648;28;20212;-64
2022/10/13 02:42:16;;;;;;;27.50;16.57;;;12.30;1.00;;;;;;5049090;28;20423;-64
2022/10/13 02:44:42;;;;;;;18.87;16.77;;;12.40;1.00;;;;;;5049379;28;21044;-66
2022/10/13 02:47:07;;;;;;;22.50;17.40;;;12.20;1.00;;;;;;5049089;28;20175;-64
2022/10/13 02:49:33;;;;;;;21.70;16.83;;;12.20;1.00;;;;;;5049522;28;20175;-66
2022/10/13 02:51:59;;;;;;;17.70;15.73;;;12.30;1.00;;;;;;5049143;28;20257;-67
2022/10/13 02:54:24;;;;;;;19.67;16.87;;;12.40;1.00;;;;;;5049157;28;20210;-65
2022/10/13 02:56:50;;;;;;;21.70;15.70;;;12.40;1.00;;;;;;5049692;28;20206;-65
2022/10/13 02:59:16;;;;;;;17.17;15.40;;;12.50;1.00;;;;;;5049366;28;20570;-63
2022/10/13 03:01:43;;;;;;;20.73;15.40;;;12.60;1.00;;;;;;5048253;28;20318;-65
2022/10/13 03:04:09;;;;;;;22.23;16.03;;;12.60;1.00;;;;;;5049241;28;20572;-65
2022/10/13 03:06:35;;;;;;;18.67;16.00;;;12.60;1.00;;;;;;5049529;28;20551;-65
2022/10/13 03:09:02;;;;;;;19.27;16.60;;;12.60;1.00;;;;;;5049707;28;20876;-65
2022/10/13 03:11:27;;;;;;;19.93;15.67;;;12.60;1.00;;;;;;5048671;28;20178;-65
2022/10/13 03:13:53;;;;;;;20.67;15.40;;;12.40;1.00;;;;;;5049603;28;20433;-65
2022/10/13 03:16:19;;;;;;;23.57;15.73;;;12.40;1.00;;;;;;5049105;28;20171;-65
2022/10/13 03:18:45;;;;;;;19.90;15.40;;;12.30;1.00;;;;;;5049748;28;20207;-66
2022/10/13 03:21:10;;;;;;;21.70;15.87;;;12.30;1.00;;;;;;5048511;28;20185;-66
2022/10/13 03:23:36;;;;;;;19.50;15.03;;;12.40;1.00;;;;;;5049266;28;20187;-65
2022/10/13 03:26:03;;;;;;;17.63;15.70;;;12.50;1.00;;;;;;5048606;28;20182;-65
2022/10/13 03:28:29;;;;;;;18.70;16.00;;;12.50;1.00;;;;;;5048498;28;20262;-65
2022/10/13 03:31:07;;;;;;;19.63;15.03;;;12.50;1.00;;;;;;5047685;28;20414;-65
2022/10/13 03:33:33;;;;;;;17.57;15.73;;;12.50;1.00;;;;;;5048897;28;20925;-65
2022/10/13 03:36:04;;;;;;;21.03;15.17;;;12.40;1.00;;;;;;5048618;28;20421;-66
2022/10/13 03:38:32;;;;;;;19.70;16.20;;;12.40;1.00;;;;;;5048942;28;20453;-65
2022/10/13 03:41:07;;;;;;;31.90;15.00;;;12.50;1.00;;;;;;5048156;28;20496;-66
2022/10/13 03:43:33;;;;;;;20.30;16.47;;;12.60;1.00;;;;;;5049388;28;20433;-65
2022/10/13 03:46:01;;;;;;;19.60;16.33;;;12.60;1.00;;;;;;5048581;28;20528;-66
2022/10/13 03:48:27;;;;;;;19.00;15.53;;;12.60;1.00;;;;;;5048661;28;20420;-65
2022/10/13 03:50:53;;;;;;;17.53;15.63;;;12.70;1.00;;;;;;5048489;28;20405;-66
2022/10/13 03:53:19;;;;;;;20.40;16.47;;;12.50;1.00;;;;;;5049395;28;20528;-65
2022/10/13 03:55:52;;;;;;;19.03;15.53;;;12.40;1.00;;;;;;5049158;28;20179;-66
2022/10/13 03:58:18;;;;;;;22.40;17.33;;;12.50;1.00;;;;;;5049356;28;20495;-66
2022/10/13 04:00:44;;;;;;;20.47;15.80;;;12.40;1.00;;;;;;5047245;28;20406;-65
2022/10/13 04:03:10;;;;;;;22.93;16.00;;;12.30;1.00;;;;;;5048684;28;20464;-65
2022/10/13 04:05:36;;;;;;;26.07;17.00;;;12.40;1.00;;;;;;5048061;28;20509;-65
2022/10/13 04:08:03;;;;;;;20.00;16.80;;;12.20;1.00;;;;;;5048420;28;20405;-66
2022/10/13 04:10:28;;;;;;;17.87;15.13;;;12.20;1.00;;;;;;5047152;28;20508;-64
2022/10/13 04:12:54;;;;;;;18.17;15.00;;;12.20;1.00;;;;;;5048877;28;20520;-65
2022/10/13 04:15:20;;;;;;;19.03;15.20;;;12.10;1.00;;;;;;5047800;28;20651;-65
2022/10/13 04:17:45;;;;;;;18.33;15.80;;;12.20;1.00;;;;;;5048255;28;20202;-65
2022/10/13 04:20:11;;;;;;;23.90;14.07;;;12.20;1.00;;;;;;5047853;28;20183;-65
2022/10/13 04:22:37;;;;;;;20.70;15.83;;;12.20;1.00;;;;;;5038139;28;20477;-65
2022/10/13 04:25:04;;;;;;;18.33;15.50;;;12.20;1.00;;;;;;5037479;28;20172;-65
2022/10/13 04:27:29;;;;;;;17.23;14.40;;;12.20;1.00;;;;;;5027563;28;20624;-65
2022/10/13 04:29:55;;;;;;;19.43;14.40;;;12.20;1.00;;;;;;5043510;28;20445;-65
2022/10/13 04:32:21;;;;;;;15.53;13.80;;;12.10;1.00;;;;;;5047526;28;20183;-66
2022/10/13 04:34:47;;;;;;;15.47;13.87;;;12.00;1.00;;;;;;5047613;28;20494;-66
2022/10/13 04:37:12;;;;;;;16.37;14.70;;;12.00;1.00;;;;;;5034670;28;20176;-66
2022/10/13 04:39:38;;;;;;;17.63;14.30;;;11.90;1.00;;;;;;5028128;28;20611;-66
2022/10/13 04:42:04;;;;;;;16.93;14.50;;;12.00;1.00;;;;;;5050653;28;20179;-66
2022/10/13 04:44:30;;;;;;;17.20;14.27;;;12.00;1.00;;;;;;5052518;28;20202;-65
2022/10/13 04:46:56;;;;;;;18.37;15.20;;;12.10;1.00;;;;;;5051716;28;20393;-65
2022/10/13 04:49:22;;;;;;;20.50;13.57;;;12.10;1.00;;;;;;5051838;28;20182;-65
2022/10/13 04:51:48;;;;;;;19.23;14.37;;;12.20;1.00;;;;;;5051102;28;20418;-66
2022/10/13 04:54:14;;;;;;;18.97;15.50;;;12.30;1.00;;;;;;5052131;28;20937;-66
2022/10/13 04:56:39;;;;;;;18.10;13.73;;;12.40;1.00;;;;;;5051478;28;20186;-65
2022/10/13 04:59:05;;;;;;;18.30;14.23;;;12.40;1.00;;;;;;5051596;28;20199;-66
2022/10/13 05:01:32;;;;;;;19.17;12.83;;;12.40;1.00;;;;;;5041337;28;20617;-66
2022/10/13 05:04:01;;;;;;;17.37;13.60;;;12.40;1.00;;;;;;5038819;28;20199;-66
2022/10/13 05:06:29;;;;;;;15.83;13.57;;;12.40;1.00;;;;;;5042664;28;20457;-66
2022/10/13 05:08:55;;;;;;;21.40;14.90;;;12.20;1.00;;;;;;5031548;28;20454;-66
2022/10/13 05:11:23;;;;;;;18.97;14.03;;;12.30;1.00;;;;;;5045276;28;20417;-66
2022/10/13 05:13:48;;;;;;;14.90;13.40;;;12.30;1.00;;;;;;5049879;28;20934;-66
2022/10/13 05:16:16;;;;;;;16.80;14.40;;;12.30;1.00;;;;;;5041694;28;20876;-65
2022/10/13 05:18:42;;;;;;;17.70;13.30;;;12.40;1.00;;;;;;5041496;28;20203;-66
2022/10/13 05:21:17;;;;;;;15.67;13.33;;;12.50;1.00;;;;;;5027961;28;20909;-66
2022/10/13 05:23:44;;;;;;;15.57;13.40;;;12.50;1.00;;;;;;5028260;28;20434;-64
2022/10/13 05:26:13;;;;;;;29.07;17.13;;;12.30;1.00;;;;;;5035168;28;20437;-66
2022/10/13 05:28:39;;;;;;;20.13;15.13;;;12.40;1.00;;;;;;5028265;28;20438;-64
2022/10/13 05:31:10;;;;;;;22.30;14.47;;;12.50;1.00;;;;;;5028946;28;20935;-65
2022/10/13 05:33:36;;;;;;;29.80;16.03;;;12.60;1.00;;;;;;5028368;28;20515;-66
2022/10/13 05:36:07;;;;;;;31.40;15.20;;;12.60;1.00;;;;;;5041451;28;20438;-67
2022/10/13 05:38:32;;;;;;;18.10;13.63;;;12.50;1.00;;;;;;5039635;28;20763;-66
2022/10/13 05:41:06;;;;;;;23.53;14.73;;;12.60;1.00;;;;;;5034638;28;20506;-66
2022/10/13 05:43:32;;;;;;;23.80;14.50;;;12.40;1.00;;;;;;5028062;28;20187;-66
2022/10/13 05:45:59;;;;;;;31.97;14.27;;;12.40;1.00;;;;;;5028423;28;20485;-65
2022/10/13 05:48:26;;;;;;;17.43;13.60;;;12.50;1.00;;;;;;5047973;28;20410;-65
2022/10/13 05:50:53;;;;;;;20.63;13.67;;;12.60;1.00;;;;;;5033219;28;20449;-66
2022/10/13 05:53:20;;;;;;;18.77;14.70;;;12.60;1.00;;;;;;5027748;28;20549;-65
2022/10/13 05:55:46;;;;;;;47.80;16.40;;;12.50;1.00;;;;;;5027790;28;20422;-66
2022/10/13 05:58:11;;;;;;;23.10;13.97;;;12.40;1.00;;;;;;5029145;28;20826;-64
2022/10/13 06:00:39;;;;;;;19.47;13.77;;;12.30;1.00;;;;;;5046481;28;20170;-66
2022/10/13 06:03:13;;;;;;;20.37;14.20;;;12.40;1.00;;;;;;5047037;28;20198;-65
2022/10/13 06:05:41;;;;;;;15.47;12.33;;;12.50;1.00;;;;;;5036904;28;20425;-65
2022/10/13 06:08:08;;;;;;;25.17;14.90;;;12.60;1.00;;;;;;5041938;28;20941;-66
2022/10/13 06:10:35;;;;;;;15.83;11.50;;;12.70;1.00;;;;;;5034076;28;20495;-66
2022/10/13 06:13:01;;;;;;;15.53;12.00;;;13.00;1.00;;;;;;5034981;28;20457;-67
2022/10/13 06:15:27;;;;;;;20.13;13.60;;;14.00;1.00;;;;;;5033712;28;20458;-64
2022/10/13 06:17:52;;;;;;;28.27;12.57;;;14.50;1.00;;;;;;5039096;28;20190;-66
2022/10/13 06:20:19;;;;;;;17.10;13.60;;;14.90;1.00;;;;;;5026662;28;20178;-65
2022/10/13 06:22:45;;;;;;;20.90;13.30;;;15.00;99.90;;;;;;5038025;28;20564;-66
2022/10/13 06:25:11;;;;;;;17.87;14.03;;;15.10;99.90;;;;;;5047371;28;20410;-67
2022/10/13 06:27:36;;;;;;;22.83;14.83;;;15.00;99.90;;;;;;5048388;28;20451;-67
2022/10/13 06:30:02;;;;;;;61.47;18.90;;;15.20;99.90;;;;;;5048607;28;20565;-67
2022/10/13 06:32:28;;;;;;;48.77;17.37;;;15.30;1.00;;;;;;5046209;28;20179;-67
2022/10/13 06:34:54;;;;;;;49.43;18.87;;;15.20;99.90;;;;;;5037497;28;20422;-68
2022/10/13 06:37:20;;;;;;;28.10;15.47;;;15.20;15.00;;;;;;5038572;28;20511;-66
2022/10/13 06:39:45;;;;;;;34.40;14.43;;;15.20;1.00;;;;;;5041560;28;20316;-68
2022/10/13 06:42:11;;;;;;;25.87;15.53;;;15.40;99.90;;;;;;5036620;28;20205;-66
2022/10/13 06:44:37;;;;;;;49.67;19.17;;;15.20;1.00;;;;;;5035236;28;20198;-66
2022/10/13 06:47:04;;;;;;;50.70;17.57;;;14.40;99.90;;;;;;5037562;28;20175;-66
2022/10/13 06:49:29;;;;;;;56.73;18.93;;;13.90;99.90;;;;;;5035479;28;20187;-66
2022/10/13 06:51:55;;;;;;;48.50;19.03;;;13.70;99.90;;;;;;5036706;28;20418;-66
2022/10/13 06:54:21;;;;;;;111.47;21.43;;;13.70;1.00;;;;;;5028782;28;20306;-66
2022/10/13 06:56:46;;;;;;;208.03;29.97;;;13.60;1.00;;;;;;5028109;28;20175;-67
2022/10/13 06:59:12;;;;;;;27.23;16.40;;;13.60;1.00;;;;;;5027813;28;20191;-67
2022/10/13 07:01:38;;;;;;;28.43;14.80;;;13.70;1.00;;;;;;5025043;28;20179;-65
2022/10/13 07:04:05;;;;;;;30.50;13.07;;;13.70;99.90;;;;;;5028460;28;20183;-65
2022/10/13 07:06:30;;;;;;;25.80;13.37;;;13.80;99.90;;;;;;5029068;28;20178;-65
2022/10/13 07:08:56;;;;;;;24.37;13.20;;;13.90;99.90;;;;;;5028751;28;20840;-65
2022/10/13 07:11:22;;;;;;;29.07;12.47;;;14.00;99.90;;;;;;5027546;28;20194;-66
2022/10/13 07:13:47;;;;;;;22.60;11.67;;;14.00;16.40;;;;;;5028283;28;20192;-65
2022/10/13 07:16:14;;;;;;;23.57;12.37;;;14.00;1.00;;;;;;5027971;28;20172;-66
2022/10/13 07:18:39;;;;;;;20.70;12.50;;;14.00;1.00;;;;;;5028408;28;20203;-65
2022/10/13 07:21:05;;;;;;;33.73;12.87;;;14.00;19.40;;;;;;5009802;28;20864;-65
2022/10/13 07:23:31;;;;;;;21.07;12.30;;;14.20;1.00;;;;;;5027992;28;20183;-66
2022/10/13 07:25:57;;;;;;;30.13;13.90;;;14.20;1.00;;;;;;5028469;28;20497;-65
2022/10/13 07:28:24;;;;;;;22.33;14.10;;;14.30;1.00;;;;;;5028662;28;20664;-65
2022/10/13 07:30:50;;;;;;;17.37;12.40;;;14.40;22.00;;;;;;5010110;28;20175;-64
2022/10/13 07:33:15;;;;;;;22.83;15.50;;;14.40;1.00;;;;;;5028504;28;20856;-64
2022/10/13 07:35:41;;;;;;;25.20;14.23;;;14.50;1.00;;;;;;5010675;28;20485;-65
2022/10/13 07:38:07;;;;;;;31.73;13.93;;;14.50;1.00;;;;;;5028123;28;20239;-65
2022/10/13 07:40:34;;;;;;;32.50;14.90;;;14.60;1.00;;;;;;5027574;28;20629;-66
2022/10/13 07:43:00;;;;;;;28.80;14.43;;;14.80;1.00;;;;;;5027470;28;20426;-65
2022/10/13 07:45:26;;;;;;;23.13;13.83;;;15.20;8.00;;;;;;5028720;28;20442;-65
2022/10/13 07:47:52;;;;;;;60.33;17.80;;;15.60;89.10;;;;;;5028976;28;20480;-66
2022/10/13 07:50:17;;;;;;;30.73;14.50;;;15.90;99.90;;;;;;5028369;28;20700;-66
2022/10/13 07:52:43;;;;;;;34.80;14.40;;;16.50;99.90;;;;;;5028008;28;20203;-67
2022/10/13 07:55:10;;;;;;;45.97;15.43;;;17.10;99.90;;;;;;5028210;28;20200;-66
2022/10/13 07:57:36;;;;;;;18.83;13.23;;;17.40;1.00;;;;;;5028940;28;20409;-66
2022/10/13 08:00:04;;;;;;;37.13;14.90;;;17.60;99.90;;;;;;5028158;28;20494;-66
2022/10/13 08:02:30;;;;;;;38.17;13.97;;;17.80;99.90;;;;;;5027979;28;20172;-66
2022/10/13 08:04:56;;;;;;;25.20;14.00;;;18.20;1.00;;;;;;5028627;28;20409;-66
2022/10/13 08:07:22;;;;;;;22.47;13.00;;;18.20;1.00;;;;;;5028697;28;20418;-66
2022/10/13 08:09:48;;;;;;;19.37;12.50;;;18.00;1.00;;;;;;5028479;28;20183;-66
2022/10/13 08:12:13;;;;;;;20.00;11.97;;;18.10;1.00;;;;;;5028026;28;20540;-67
2022/10/13 08:14:39;;;;;;;66.90;17.60;;;18.10;1.00;;;;;;5032087;28;20541;-65
2022/10/13 08:17:05;;;;;;;59.13;16.00;;;18.00;1.00;;;;;;5032881;28;20221;-66
2022/10/13 08:19:30;;;;;;;28.67;12.13;;;18.10;1.00;;;;;;5032392;28;20298;-66
2022/10/13 08:21:56;;;;;;;51.83;13.80;;;17.80;1.00;;;;;;5032055;28;20218;-66
2022/10/13 08:24:22;;;;;;;39.87;14.67;;;17.70;1.00;;;;;;5032626;28;20195;-64
2022/10/13 08:26:48;;;;;;;30.13;13.07;;;17.80;1.00;;;;;;5032483;28;20695;-66
2022/10/13 08:29:14;;;;;;;22.70;12.50;;;17.60;1.00;;;;;;5032642;28;20187;-66
2022/10/13 08:31:41;;;;;;;30.37;12.67;;;17.70;1.00;;;;;;5031147;28;20816;-66
2022/10/13 08:34:08;;;;;;;25.43;12.47;;;17.80;1.00;;;;;;5032463;28;20636;-66
2022/10/13 08:36:33;;;;;;;33.23;13.30;;;17.90;1.00;;;;;;5032726;28;20415;-65
2022/10/13 08:38:59;;;;;;;70.47;19.27;;;18.20;1.00;;;;;;5040952;28;20942;-66
2022/10/13 08:41:30;;;;;;;40.67;13.03;;;18.70;1.00;;;;;;5051247;28;20508;-66
2022/10/13 08:44:03;;;;;;;77.37;18.20;;;19.10;1.00;;;;;;5052510;28;20203;-66
2022/10/13 08:46:38;;;;;;;97.33;17.30;;;19.40;1.00;;;;;;5051852;28;20777;-66
2022/10/13 08:49:05;;;;;;;22.73;11.93;;;19.00;1.00;;;;;;5052036;28;20452;-66
2022/10/13 08:51:32;;;;;;;28.30;13.17;;;18.60;1.00;;;;;;5049881;28;20845;-66
2022/10/13 08:53:58;;;;;;;42.73;14.30;;;18.30;1.00;;;;;;5051811;28;20459;-66
2022/10/13 08:56:26;;;;;;;46.13;14.63;;;18.10;1.00;;;;;;5052121;28;20505;-66
2022/10/13 08:58:53;;;;;;;33.40;13.93;;;17.90;1.00;;;;;;5051396;28;20988;-65
2022/10/13 09:01:29;;;;;;;31.67;13.27;;;17.80;1.00;;;;;;5050299;28;20957;-66
2022/10/13 09:03:54;;;;;;;17.23;12.23;;;17.90;1.00;;;;;;5051575;28;20835;-66
2022/10/13 09:06:32;;;;;;;20.47;13.67;;;17.90;1.00;;;;;;5051109;28;20870;-65
2022/10/13 09:09:04;;;;;;;22.13;13.80;;;17.90;1.00;;;;;;5051715;28;20227;-66
2022/10/13 09:11:36;;;;;;;17.80;12.83;;;17.90;1.00;;;;;;5050887;28;20441;-66
2022/10/13 09:14:07;;;;;;;18.73;12.57;;;17.90;1.00;;;;;;5051994;28;20436;-66
2022/10/13 09:16:36;;;;;;;112.67;24.10;;;17.80;1.00;;;;;;5050955;28;20401;-66
2022/10/13 09:19:19;;;;;;;151.57;23.13;;;17.90;1.00;;;;;;5051301;28;20537;-66
2022/10/13 09:21:46;;;;;;;65.60;17.73;;;18.00;1.00;;;;;;5051080;28;20452;-66
2022/10/13 09:24:18;;;;;;;43.70;14.10;;;18.40;1.00;;;;;;5050687;28;20433;-66
2022/10/13 09:26:45;;;;;;;31.43;13.30;;;18.80;1.00;;;;;;5051122;28;20410;-66
2022/10/13 09:29:16;;;;;;;37.10;14.53;;;19.00;1.00;;;;;;5051637;28;20419;-66
2022/10/13 09:31:42;;;;;;;29.50;13.13;;;18.90;1.00;;;;;;5050069;28;20459;-66
2022/10/13 09:34:34;;;;;;;48.60;16.87;;;18.90;1.00;;;;;;5051103;28;20938;-66
2022/10/13 09:37:20;;;;;;;60.40;15.87;;;18.90;1.00;;;;;;5046611;28;20183;-66
2022/10/13 09:39:48;;;;;;;27.20;12.87;;;19.00;1.00;;;;;;5051164;28;20455;-65
2022/10/13 09:42:24;;;;;;;27.00;13.17;;;18.80;1.00;;;;;;5044980;28;20438;-65
2022/10/13 09:45:14;;;;;;;18.73;12.57;;;18.40;1.00;;;;;;5047466;28;20945;-64
2022/10/13 09:47:48;;;;;;;24.17;12.93;;;18.30;1.00;;;;;;5051373;28;20574;-64
2022/10/13 09:50:16;;;;;;;19.47;13.13;;;18.20;1.00;;;;;;5050466;28;21150;-64
2022/10/13 09:52:44;;;;;;;22.30;12.60;;;18.10;1.00;;;;;;5049283;28;20429;-64
2022/10/13 09:55:31;;;;;;;20.30;12.57;;;18.10;1.00;;;;;;5050993;28;20788;-64
2022/10/13 09:58:05;;;;;;;21.17;12.73;;;18.00;1.00;;;;;;5051089;28;21004;-64
2022/10/13 10:00:31;;;;;;;24.00;12.77;;;17.70;1.00;;;;;;5049218;28;20417;-64
2022/10/13 10:03:17;;;;;;;51.67;16.00;;;17.80;1.00;;;;;;5050139;28;20495;-64
2022/10/13 10:05:58;;;;;;;85.40;17.57;;;17.70;1.00;;;;;;5050303;28;20469;-64
2022/10/13 10:08:30;;;;;;;37.43;14.20;;;17.70;1.00;;;;;;5051179;28;20416;-64
2022/10/13 10:10:59;;;;;;;84.50;18.73;;;17.70;1.00;;;;;;5049085;28;20413;-64
2022/10/13 10:13:24;;;;;;;80.63;18.53;;;17.70;1.00;;;;;;5050593;28;20520;-64
2022/10/13 10:16:21;;;;;;;22.53;12.90;;;17.60;1.00;;;;;;5049885;28;21017;-64
2022/10/13 10:19:09;;;;;;;21.33;14.30;;;17.50;1.00;;;;;;5049917;28;20649;-64
2022/10/13 10:21:57;;;;;;;26.23;14.43;;;17.60;1.00;;;;;;5049191;28;20413;-64
2022/10/13 10:24:44;;;;;;;72.23;20.03;;;17.70;1.00;;;;;;5050280;28;20425;-64
2022/10/13 10:27:20;;;;;;;53.33;15.60;;;17.50;1.00;;;;;;5050297;28;20407;-64
2022/10/13 10:30:00;;;;;;;47.50;15.80;;;17.60;1.00;;;;;;5050237;28;20417;-64
2022/10/13 10:32:33;;;;;;;21.57;14.20;;;17.80;1.00;;;;;;5049440;28;20470;-64
2022/10/13 10:35:19;;;;;;;20.07;13.07;;;17.90;1.00;;;;;;5049792;28;20431;-64
2022/10/13 10:38:11;;;;;;;20.20;13.33;;;18.10;1.00;;;;;;5049301;28;20416;-64
2022/10/13 10:40:56;;;;;;;20.33;13.60;;;18.40;1.00;;;;;;5048820;28;20405;-66
2022/10/13 10:43:46;;;;;;;23.87;12.23;;;18.40;1.00;;;;;;5049126;28;20758;-64
2022/10/13 10:46:35;;;;;;;20.10;12.73;;;18.40;1.00;;;;;;5048986;28;20410;-65
2022/10/13 10:49:11;;;;;;;40.00;14.73;;;18.10;1.00;;;;;;5050119;28;20996;-64
2022/10/13 10:51:38;;;;;;;30.37;14.97;;;18.10;1.00;;;;;;5048262;28;20405;-65
2022/10/13 10:54:39;;;;;;;88.07;20.17;;;18.00;1.00;;;;;;5049495;28;20460;-66
2022/10/13 10:57:30;;;;;;;125.77;24.73;;;18.10;1.00;;;;;;5049113;28;20449;-66
2022/10/13 10:59:55;;;;;;;41.40;15.40;;;18.10;1.00;;;;;;5048602;28;20977;-66
2022/10/13 11:02:39;;;;;;;51.63;16.53;;;18.10;1.00;;;;;;5048347;28;20409;-66
2022/10/13 11:05:05;;;;;;;26.80;13.97;;;18.10;1.00;;;;;;5049535;28;20170;-67
2022/10/13 11:07:30;;;;;;;32.10;14.30;;;18.00;1.00;;;;;;5049185;28;20748;-67
2022/10/13 11:09:56;;;;;;;26.20;14.13;;;18.10;1.00;;;;;;5049168;28;20178;-67
2022/10/13 11:12:22;;;;;;;17.43;13.33;;;18.30;1.00;;;;;;5048950;28;20185;-66
2022/10/13 11:14:53;;;;;;;15.40;13.90;;;18.50;1.00;;;;;;5049377;28;20194;-67
2022/10/13 11:17:36;;;;;;;18.17;13.37;;;18.40;1.00;;;;;;5048970;28;20248;-67
2022/10/13 11:20:24;;;;;;;44.30;15.50;;;18.30;1.00;;;;;;5048671;28;20497;-66
2022/10/13 11:22:59;;;;;;;120.93;21.23;;;18.40;1.00;;;;;;5048916;28;20421;-67
2022/10/13 11:25:38;;;;;;;46.00;14.70;;;18.40;1.00;;;;;;5048930;28;20432;-66
2022/10/13 11:28:19;;;;;;;32.53;16.80;;;18.30;1.00;;;;;;5049125;28;20527;-65
2022/10/13 11:30:49;;;;;;;23.73;13.03;;;18.30;1.00;;;;;;5047767;28;20409;-67
2022/10/13 11:33:36;;;;;;;38.13;14.60;;;18.30;1.00;;;;;;5048479;28;20491;-67
2022/10/13 11:36:30;;;;;;;25.40;14.13;;;18.10;1.00;;;;;;5048747;28;20904;-65
2022/10/13 11:39:05;;;;;;;27.50;13.53;;;18.10;1.00;;;;;;5049096;28;20540;-66
2022/10/13 11:41:39;;;;;;;22.50;13.70;;;18.00;1.00;;;;;;5048723;28;20776;-65
2022/10/13 11:44:33;;;;;;;43.57;14.70;;;17.90;1.00;;;;;;5049073;28;20886;-66
2022/10/13 11:47:15;;;;;;;34.17;14.60;;;17.90;1.00;;;;;;5013333;28;20825;-66
2022/10/13 11:50:02;;;;;;;49.23;17.50;;;17.90;1.00;;;;;;5051875;28;20496;-66
2022/10/13 11:52:59;;;;;;;53.30;17.80;;;17.90;1.00;;;;;;5051388;28;20410;-66
2022/10/13 11:55:49;;;;;;;25.73;15.50;;;17.80;1.00;;;;;;5053029;28;20409;-66
2022/10/13 11:58:19;;;;;;;19.70;13.67;;;17.90;1.00;;;;;;5034998;28;20977;-66
2022/10/13 12:01:00;;;;;;;22.23;14.43;;;17.90;1.00;;;;;;5051472;28;20901;-67
2022/10/13 12:03:31;;;;;;;20.53;14.37;;;17.80;1.00;;;;;;5052871;28;20451;-65
2022/10/13 12:06:16;;;;;;;21.77;13.67;;;17.80;1.00;;;;;;5053134;28;20409;-65
2022/10/13 12:08:50;;;;;;;38.63;16.93;;;17.90;1.00;;;;;;5053042;28;20423;-66
2022/10/13 12:11:36;;;;;;;190.63;24.70;;;17.80;1.00;;;;;;5052311;28;20428;-68
2022/10/13 12:14:06;;;;;;;80.20;19.70;;;17.90;1.00;;;;;;5046273;28;20445;-66
2022/10/13 12:16:32;;;;;;;28.70;15.00;;;18.00;1.00;;;;;;5031908;28;20409;-67
2022/10/13 12:19:15;;;;;;;29.47;16.80;;;17.90;1.00;;;;;;5040156;28;21045;-67
2022/10/13 12:21:52;;;;;;;27.10;14.37;;;17.90;1.00;;;;;;5039641;28;20171;-66
2022/10/13 12:24:20;;;;;;;27.50;14.90;;;17.90;1.00;;;;;;5040524;28;20804;-66
2022/10/13 12:26:46;;;;;;;111.87;23.80;;;17.90;1.00;;;;;;5035440;28;20493;-65
2022/10/13 12:29:14;;;;;;;223.80;32.17;;;17.80;1.00;;;;;;5045795;28;20834;-66
2022/10/13 12:31:42;;;;;;;109.87;22.87;;;17.80;1.00;;;;;;5045422;28;20202;-66
2022/10/13 12:34:33;;;;;;;56.60;16.50;;;17.80;1.00;;;;;;5049046;28;20990;-66
2022/10/13 12:37:06;;;;;;;126.70;26.70;;;17.80;1.00;;;;;;5040508;28;20416;-66
2022/10/13 12:39:34;;;;;;;87.50;21.60;;;17.90;1.00;;;;;;5033141;28;20759;-66
2022/10/13 12:42:01;;;;;;;40.20;16.20;;;17.80;7.40;;;;;;5035598;28;20418;-67
2022/10/13 12:44:30;;;;;;;34.30;17.03;;;17.80;7.20;;;;;;5031132;28;20434;-66
2022/10/13 12:46:58;;;;;;;43.53;16.40;;;17.80;34.30;;;;;;5031252;28;20405;-66
2022/10/13 12:49:23;;;;;;;21.43;15.03;;;17.80;21.20;;;;;;5036739;28;20461;-65
2022/10/13 12:52:04;;;;;;;31.00;15.87;;;17.70;47.40;;;;;;5050197;28;20437;-66
2022/10/13 12:54:33;;;;;;;20.87;15.87;;;17.70;99.90;;;;;;5050818;28;20236;-65